sensor_id;sensor_type;location;lat;lon;timestamp;P1;durP1;ratioP1;P2;durP2;ratioP2
7348;SDS011;13010;-33.424;-70.614;2023-02-13T01:12:50;3.70;;;1.90;;
7348;SDS011;13010;-33.424;-70.614;2023-02-13T01:15:40;8.27;;;2.27;;
7348;SDS011;13010;-33.424;-70.614;2023-02-13T01:18:29;3.57;;;2.07;;
7348;SDS011;13010;-33.424;-70.614;2023-02-13T01:21:20;7.60;;;1.97;;
7348;SDS011;13010;-33.424;-70.614;2023-02-13T01:24:10;12.83;;;2.50;;
7348;SDS011;13010;-33.424;-70.614;2023-02-13T01:26:59;3.97;;;1.73;;
7348;SDS011;13010;-33.424;-70.614;2023-02-13T01:29:50;6.17;;;2.17;;
7348;SDS011;13010;-33.424;-70.614;2023-02-13T01:32:43;4.03;;;1.77;;
7348;SDS011;13010;-33.424;-70.614;2023-02-13T01:35:33;4.33;;;2.30;;
7348;SDS011;13010;-33.424;-70.614;2023-02-13T01:38:24;5.37;;;2.57;;
7348;SDS011;13010;-33.424;-70.614;2023-02-13T01:41:13;6.57;;;2.27;;
7348;SDS011;13010;-33.424;-70.614;2023-02-13T01:44:43;7.07;;;2.10;;
7348;SDS011;13010;-33.424;-70.614;2023-02-13T01:47:32;3.43;;;2.07;;
7348;SDS011;13010;-33.424;-70.614;2023-02-13T01:50:27;4.17;;;2.20;;
7348;SDS011;13010;-33.424;-70.614;2023-02-13T01:53:22;7.40;;;2.40;;
7348;SDS011;13010;-33.424;-70.614;2023-02-13T01:56:17;11.20;;;2.33;;
7348;SDS011;13010;-33.424;-70.614;2023-02-13T01:59:10;6.50;;;2.47;;
7348;SDS011;13010;-33.424;-70.614;2023-02-13T02:02:04;5.13;;;2.50;;
7348;SDS011;13010;-33.424;-70.614;2023-02-13T02:04:56;5.73;;;2.53;;
7348;SDS011;13010;-33.424;-70.614;2023-02-13T02:07:46;10.23;;;2.43;;
7348;SDS011;13010;-33.424;-70.614;2023-02-13T02:10:36;4.37;;;2.53;;
7348;SDS011;13010;-33.424;-70.614;2023-02-13T02:13:26;4.83;;;2.40;;
7348;SDS011;13010;-33.424;-70.614;2023-02-13T02:16:16;4.57;;;2.90;;
7348;SDS011;13010;-33.424;-70.614;2023-02-13T02:19:08;8.87;;;3.27;;
7348;SDS011;13010;-33.424;-70.614;2023-02-13T02:35:43;10.30;;;3.07;;
7348;SDS011;13010;-33.424;-70.614;2023-02-13T02:38:45;8.07;;;3.70;;
7348;SDS011;13010;-33.424;-70.614;2023-02-13T02:41:47;7.00;;;4.13;;
7348;SDS011;13010;-33.424;-70.614;2023-02-13T02:44:45;5.73;;;2.97;;
7348;SDS011;13010;-33.424;-70.614;2023-02-13T02:47:43;6.73;;;3.10;;
7348;SDS011;13010;-33.424;-70.614;2023-02-13T02:50:58;10.80;;;3.20;;
7348;SDS011;13010;-33.424;-70.614;2023-02-13T02:53:58;8.47;;;2.63;;
7348;SDS011;13010;-33.424;-70.614;2023-02-13T02:57:15;7.40;;;3.80;;
7348;SDS011;13010;-33.424;-70.614;2023-02-13T03:00:10;6.40;;;3.00;;
7348;SDS011;13010;-33.424;-70.614;2023-02-13T03:03:16;11.03;;;3.50;;
7348;SDS011;13010;-33.424;-70.614;2023-02-13T03:06:25;12.93;;;3.43;;
7348;SDS011;13010;-33.424;-70.614;2023-02-13T03:09:19;8.80;;;3.77;;
7348;SDS011;13010;-33.424;-70.614;2023-02-13T03:12:29;6.27;;;3.53;;
7348;SDS011;13010;-33.424;-70.614;2023-02-13T03:15:40;8.93;;;3.00;;
7348;SDS011;13010;-33.424;-70.614;2023-02-13T03:18:44;10.73;;;3.70;;
7348;SDS011;13010;-33.424;-70.614;2023-02-13T03:21:55;12.60;;;2.90;;
7348;SDS011;13010;-33.424;-70.614;2023-02-13T03:25:09;7.37;;;2.53;;
7348;SDS011;13010;-33.424;-70.614;2023-02-13T03:28:18;10.20;;;3.50;;
7348;SDS011;13010;-33.424;-70.614;2023-02-13T03:31:33;6.47;;;3.07;;
7348;SDS011;13010;-33.424;-70.614;2023-02-13T03:34:31;4.77;;;2.77;;
7348;SDS011;13010;-33.424;-70.614;2023-02-13T03:37:39;6.73;;;2.80;;
7348;SDS011;13010;-33.424;-70.614;2023-02-13T03:40:43;10.67;;;3.00;;
7348;SDS011;13010;-33.424;-70.614;2023-02-13T03:43:57;4.67;;;2.53;;
7348;SDS011;13010;-33.424;-70.614;2023-02-13T03:46:56;4.70;;;2.50;;
7348;SDS011;13010;-33.424;-70.614;2023-02-13T03:49:48;6.80;;;3.43;;
7348;SDS011;13010;-33.424;-70.614;2023-02-13T03:52:57;5.50;;;3.07;;
7348;SDS011;13010;-33.424;-70.614;2023-02-13T03:55:49;6.97;;;2.77;;
7348;SDS011;13010;-33.424;-70.614;2023-02-13T03:58:56;6.20;;;3.13;;
7348;SDS011;13010;-33.424;-70.614;2023-02-13T04:02:04;10.07;;;3.87;;
7348;SDS011;13010;-33.424;-70.614;2023-02-13T04:05:02;5.50;;;2.90;;
7348;SDS011;13010;-33.424;-70.614;2023-02-13T04:07:58;9.70;;;3.90;;
7348;SDS011;13010;-33.424;-70.614;2023-02-13T04:10:49;7.50;;;3.20;;
7348;SDS011;13010;-33.424;-70.614;2023-02-13T04:13:41;7.77;;;3.53;;
7348;SDS011;13010;-33.424;-70.614;2023-02-13T04:16:35;13.30;;;3.70;;
7348;SDS011;13010;-33.424;-70.614;2023-02-13T04:19:27;11.60;;;2.80;;
7348;SDS011;13010;-33.424;-70.614;2023-02-13T04:22:16;10.90;;;3.40;;
7348;SDS011;13010;-33.424;-70.614;2023-02-13T04:25:09;15.20;;;3.63;;
7348;SDS011;13010;-33.424;-70.614;2023-02-13T04:28:00;6.00;;;2.80;;
7348;SDS011;13010;-33.424;-70.614;2023-02-13T04:30:50;16.97;;;4.80;;
7348;SDS011;13010;-33.424;-70.614;2023-02-13T04:33:41;5.87;;;3.27;;
7348;SDS011;13010;-33.424;-70.614;2023-02-13T04:36:30;5.60;;;2.70;;
7348;SDS011;13010;-33.424;-70.614;2023-02-13T04:39:20;5.20;;;2.63;;
7348;SDS011;13010;-33.424;-70.614;2023-02-13T04:42:10;8.67;;;3.53;;
7348;SDS011;13010;-33.424;-70.614;2023-02-13T04:44:59;3.83;;;2.33;;
7348;SDS011;13010;-33.424;-70.614;2023-02-13T04:47:51;4.53;;;2.50;;
7348;SDS011;13010;-33.424;-70.614;2023-02-13T04:50:40;8.10;;;2.87;;
7348;SDS011;13010;-33.424;-70.614;2023-02-13T04:53:31;4.97;;;2.37;;
7348;SDS011;13010;-33.424;-70.614;2023-02-13T04:56:21;4.57;;;2.80;;
7348;SDS011;13010;-33.424;-70.614;2023-02-13T04:59:12;7.90;;;3.37;;
7348;SDS011;13010;-33.424;-70.614;2023-02-13T05:02:01;5.90;;;2.73;;
7348;SDS011;13010;-33.424;-70.614;2023-02-13T05:04:50;8.43;;;3.00;;
7348;SDS011;13010;-33.424;-70.614;2023-02-13T05:07:40;5.93;;;2.80;;
7348;SDS011;13010;-33.424;-70.614;2023-02-13T05:10:29;11.80;;;3.63;;
7348;SDS011;13010;-33.424;-70.614;2023-02-13T05:13:19;7.37;;;3.73;;
7348;SDS011;13010;-33.424;-70.614;2023-02-13T05:16:11;9.63;;;3.63;;
7348;SDS011;13010;-33.424;-70.614;2023-02-13T05:19:00;7.13;;;3.10;;
7348;SDS011;13010;-33.424;-70.614;2023-02-13T05:21:50;4.70;;;3.00;;
7348;SDS011;13010;-33.424;-70.614;2023-02-13T05:24:55;9.80;;;3.30;;
7348;SDS011;13010;-33.424;-70.614;2023-02-13T05:27:45;5.80;;;3.47;;
7348;SDS011;13010;-33.424;-70.614;2023-02-13T05:30:35;12.77;;;3.13;;
7348;SDS011;13010;-33.424;-70.614;2023-02-13T05:33:26;7.23;;;2.80;;
7348;SDS011;13010;-33.424;-70.614;2023-02-13T05:36:15;6.73;;;3.93;;
7348;SDS011;13010;-33.424;-70.614;2023-02-13T05:39:05;6.30;;;3.07;;
7348;SDS011;13010;-33.424;-70.614;2023-02-13T05:41:55;4.60;;;2.47;;
7348;SDS011;13010;-33.424;-70.614;2023-02-13T05:44:48;5.83;;;3.07;;
7348;SDS011;13010;-33.424;-70.614;2023-02-13T05:47:38;4.03;;;2.53;;
7348;SDS011;13010;-33.424;-70.614;2023-02-13T05:50:30;9.50;;;2.93;;
7348;SDS011;13010;-33.424;-70.614;2023-02-13T05:53:20;9.83;;;2.93;;
7348;SDS011;13010;-33.424;-70.614;2023-02-13T05:56:09;5.77;;;2.97;;
7348;SDS011;13010;-33.424;-70.614;2023-02-13T05:58:59;6.00;;;2.90;;
7348;SDS011;13010;-33.424;-70.614;2023-02-13T06:01:48;4.50;;;2.80;;
7348;SDS011;13010;-33.424;-70.614;2023-02-13T06:04:38;5.00;;;3.20;;
7348;SDS011;13010;-33.424;-70.614;2023-02-13T06:07:29;12.30;;;4.03;;
7348;SDS011;13010;-33.424;-70.614;2023-02-13T06:10:19;7.97;;;3.33;;
7348;SDS011;13010;-33.424;-70.614;2023-02-13T06:13:09;6.07;;;3.20;;
7348;SDS011;13010;-33.424;-70.614;2023-02-13T06:15:59;5.40;;;3.60;;
7348;SDS011;13010;-33.424;-70.614;2023-02-13T06:18:49;10.50;;;3.93;;
7348;SDS011;13010;-33.424;-70.614;2023-02-13T06:21:38;7.57;;;2.93;;
7348;SDS011;13010;-33.424;-70.614;2023-02-13T06:24:29;10.20;;;3.70;;
7348;SDS011;13010;-33.424;-70.614;2023-02-13T06:27:19;6.50;;;3.50;;
7348;SDS011;13010;-33.424;-70.614;2023-02-13T06:30:09;4.87;;;3.10;;
7348;SDS011;13010;-33.424;-70.614;2023-02-13T06:33:00;7.20;;;2.90;;
7348;SDS011;13010;-33.424;-70.614;2023-02-13T06:35:50;7.27;;;2.93;;
7348;SDS011;13010;-33.424;-70.614;2023-02-13T06:38:38;5.97;;;3.17;;
7348;SDS011;13010;-33.424;-70.614;2023-02-13T06:41:30;4.33;;;2.70;;
7348;SDS011;13010;-33.424;-70.614;2023-02-13T06:44:20;6.73;;;3.10;;
7348;SDS011;13010;-33.424;-70.614;2023-02-13T06:47:09;8.63;;;4.20;;
7348;SDS011;13010;-33.424;-70.614;2023-02-13T06:49:58;8.43;;;3.67;;
7348;SDS011;13010;-33.424;-70.614;2023-02-13T06:52:48;7.97;;;3.10;;
7348;SDS011;13010;-33.424;-70.614;2023-02-13T06:55:38;9.43;;;4.20;;
7348;SDS011;13010;-33.424;-70.614;2023-02-13T06:58:29;5.13;;;2.77;;
7348;SDS011;13010;-33.424;-70.614;2023-02-13T07:01:19;15.30;;;3.83;;
7348;SDS011;13010;-33.424;-70.614;2023-02-13T07:04:08;9.00;;;2.80;;
7348;SDS011;13010;-33.424;-70.614;2023-02-13T07:06:58;7.13;;;3.70;;
7348;SDS011;13010;-33.424;-70.614;2023-02-13T07:09:47;8.70;;;3.60;;
7348;SDS011;13010;-33.424;-70.614;2023-02-13T07:12:36;12.60;;;3.77;;
7348;SDS011;13010;-33.424;-70.614;2023-02-13T07:15:28;5.73;;;3.50;;
7348;SDS011;13010;-33.424;-70.614;2023-02-13T07:18:17;6.60;;;3.10;;
7348;SDS011;13010;-33.424;-70.614;2023-02-13T07:21:06;7.90;;;3.23;;
7348;SDS011;13010;-33.424;-70.614;2023-02-13T07:23:55;5.47;;;3.00;;
7348;SDS011;13010;-33.424;-70.614;2023-02-13T07:33:38;7.77;;;3.30;;
7348;SDS011;13010;-33.424;-70.614;2023-02-13T07:36:27;6.07;;;2.90;;
7348;SDS011;13010;-33.424;-70.614;2023-02-13T07:39:17;7.80;;;3.53;;
7348;SDS011;13010;-33.424;-70.614;2023-02-13T07:42:06;8.20;;;3.50;;
7348;SDS011;13010;-33.424;-70.614;2023-02-13T07:44:55;6.80;;;3.60;;
7348;SDS011;13010;-33.424;-70.614;2023-02-13T07:47:47;8.63;;;3.90;;
7348;SDS011;13010;-33.424;-70.614;2023-02-13T07:50:36;8.90;;;3.13;;
7348;SDS011;13010;-33.424;-70.614;2023-02-13T07:53:24;8.10;;;4.10;;
7348;SDS011;13010;-33.424;-70.614;2023-02-13T07:56:14;6.03;;;2.83;;
7348;SDS011;13010;-33.424;-70.614;2023-02-13T07:59:04;9.53;;;3.50;;
7348;SDS011;13010;-33.424;-70.614;2023-02-13T08:01:53;7.03;;;3.50;;
7348;SDS011;13010;-33.424;-70.614;2023-02-13T08:04:44;6.77;;;3.47;;
7348;SDS011;13010;-33.424;-70.614;2023-02-13T08:07:34;10.27;;;3.10;;
7348;SDS011;13010;-33.424;-70.614;2023-02-13T08:10:24;7.27;;;3.17;;
7348;SDS011;13010;-33.424;-70.614;2023-02-13T08:13:29;5.23;;;2.90;;
7348;SDS011;13010;-33.424;-70.614;2023-02-13T08:16:18;14.37;;;3.00;;
7348;SDS011;13010;-33.424;-70.614;2023-02-13T08:19:07;6.87;;;4.07;;
7348;SDS011;13010;-33.424;-70.614;2023-02-13T08:21:59;6.10;;;2.90;;
7348;SDS011;13010;-33.424;-70.614;2023-02-13T08:24:49;6.47;;;3.20;;
7348;SDS011;13010;-33.424;-70.614;2023-02-13T08:27:38;7.43;;;3.80;;
7348;SDS011;13010;-33.424;-70.614;2023-02-13T08:30:27;6.70;;;2.83;;
7348;SDS011;13010;-33.424;-70.614;2023-02-13T08:33:17;6.03;;;3.40;;
7348;SDS011;13010;-33.424;-70.614;2023-02-13T08:36:07;5.53;;;3.20;;
7348;SDS011;13010;-33.424;-70.614;2023-02-13T08:38:58;4.27;;;2.93;;
7348;SDS011;13010;-33.424;-70.614;2023-02-13T08:41:48;8.20;;;3.57;;
7348;SDS011;13010;-33.424;-70.614;2023-02-13T08:44:37;8.70;;;3.20;;
7348;SDS011;13010;-33.424;-70.614;2023-02-13T08:47:27;7.03;;;3.30;;
7348;SDS011;13010;-33.424;-70.614;2023-02-13T08:50:16;7.73;;;2.80;;
7348;SDS011;13010;-33.424;-70.614;2023-02-13T08:53:07;7.43;;;3.00;;
7348;SDS011;13010;-33.424;-70.614;2023-02-13T08:56:00;7.00;;;2.57;;
7348;SDS011;13010;-33.424;-70.614;2023-02-13T08:58:48;4.77;;;2.73;;
7348;SDS011;13010;-33.424;-70.614;2023-02-13T09:01:38;5.47;;;3.07;;
7348;SDS011;13010;-33.424;-70.614;2023-02-13T09:04:28;6.50;;;2.70;;
7348;SDS011;13010;-33.424;-70.614;2023-02-13T09:07:16;4.90;;;3.00;;
7348;SDS011;13010;-33.424;-70.614;2023-02-13T09:10:08;11.53;;;2.97;;
7348;SDS011;13010;-33.424;-70.614;2023-02-13T09:12:59;5.13;;;3.40;;
7348;SDS011;13010;-33.424;-70.614;2023-02-13T09:15:48;7.23;;;3.00;;
7348;SDS011;13010;-33.424;-70.614;2023-02-13T09:18:37;6.47;;;3.70;;
7348;SDS011;13010;-33.424;-70.614;2023-02-13T09:21:29;5.20;;;2.93;;
7348;SDS011;13010;-33.424;-70.614;2023-02-13T09:24:18;4.17;;;2.43;;
7348;SDS011;13010;-33.424;-70.614;2023-02-13T09:27:06;4.97;;;2.40;;
7348;SDS011;13010;-33.424;-70.614;2023-02-13T09:29:58;6.37;;;3.30;;
7348;SDS011;13010;-33.424;-70.614;2023-02-13T09:32:47;9.33;;;2.80;;
7348;SDS011;13010;-33.424;-70.614;2023-02-13T09:35:37;5.80;;;2.23;;
7348;SDS011;13010;-33.424;-70.614;2023-02-13T09:38:26;7.03;;;4.03;;
7348;SDS011;13010;-33.424;-70.614;2023-02-13T09:41:16;7.13;;;2.63;;
7348;SDS011;13010;-33.424;-70.614;2023-02-13T09:44:10;9.17;;;3.13;;
7348;SDS011;13010;-33.424;-70.614;2023-02-13T09:47:18;7.33;;;3.00;;
7348;SDS011;13010;-33.424;-70.614;2023-02-13T09:50:16;9.47;;;3.43;;
7348;SDS011;13010;-33.424;-70.614;2023-02-13T11:05:04;9.90;;;4.80;;
7348;SDS011;13010;-33.424;-70.614;2023-02-13T11:08:02;7.10;;;4.43;;
7348;SDS011;13010;-33.424;-70.614;2023-02-13T11:11:01;7.50;;;5.17;;
7348;SDS011;13010;-33.424;-70.614;2023-02-13T11:13:51;7.60;;;5.40;;
7348;SDS011;13010;-33.424;-70.614;2023-02-13T11:16:57;9.40;;;6.47;;
7348;SDS011;13010;-33.424;-70.614;2023-02-13T11:19:48;9.33;;;6.07;;
7348;SDS011;13010;-33.424;-70.614;2023-02-13T11:22:39;10.90;;;5.33;;
7348;SDS011;13010;-33.424;-70.614;2023-02-13T11:25:30;9.57;;;5.77;;
7348;SDS011;13010;-33.424;-70.614;2023-02-13T11:28:19;72.07;;;9.10;;
7348;SDS011;13010;-33.424;-70.614;2023-02-13T11:31:14;17.00;;;5.53;;
7348;SDS011;13010;-33.424;-70.614;2023-02-13T11:34:22;7.70;;;5.57;;
7348;SDS011;13010;-33.424;-70.614;2023-02-13T11:37:16;11.10;;;6.60;;
7348;SDS011;13010;-33.424;-70.614;2023-02-13T11:40:27;9.90;;;6.83;;
7348;SDS011;13010;-33.424;-70.614;2023-02-13T11:43:18;20.33;;;8.83;;
7348;SDS011;13010;-33.424;-70.614;2023-02-13T11:46:14;14.00;;;9.00;;
7348;SDS011;13010;-33.424;-70.614;2023-02-13T11:49:06;13.70;;;8.67;;
7348;SDS011;13010;-33.424;-70.614;2023-02-13T11:52:01;18.90;;;9.50;;
7348;SDS011;13010;-33.424;-70.614;2023-02-13T11:54:57;18.20;;;9.00;;
7348;SDS011;13010;-33.424;-70.614;2023-02-13T11:57:56;17.63;;;9.33;;
7348;SDS011;13010;-33.424;-70.614;2023-02-13T12:00:47;12.43;;;5.23;;
7348;SDS011;13010;-33.424;-70.614;2023-02-13T12:03:36;11.93;;;3.83;;
7348;SDS011;13010;-33.424;-70.614;2023-02-13T12:06:26;7.53;;;3.27;;
7348;SDS011;13010;-33.424;-70.614;2023-02-13T12:09:25;4.57;;;2.57;;
7348;SDS011;13010;-33.424;-70.614;2023-02-13T12:12:17;10.23;;;2.50;;
7348;SDS011;13010;-33.424;-70.614;2023-02-13T12:15:16;5.60;;;2.50;;
7348;SDS011;13010;-33.424;-70.614;2023-02-13T12:18:09;16.00;;;3.07;;
7348;SDS011;13010;-33.424;-70.614;2023-02-13T12:21:17;5.17;;;2.73;;
7348;SDS011;13010;-33.424;-70.614;2023-02-13T12:24:20;3.50;;;2.03;;
7348;SDS011;13010;-33.424;-70.614;2023-02-13T12:27:21;5.20;;;2.10;;
7348;SDS011;13010;-33.424;-70.614;2023-02-13T12:30:27;4.00;;;2.30;;
7348;SDS011;13010;-33.424;-70.614;2023-02-13T12:36:48;12.90;;;2.60;;
7348;SDS011;13010;-33.424;-70.614;2023-02-13T12:39:49;4.10;;;2.03;;
7348;SDS011;13010;-33.424;-70.614;2023-02-13T12:42:51;8.27;;;3.10;;
7348;SDS011;13010;-33.424;-70.614;2023-02-13T12:46:01;6.87;;;1.93;;
7348;SDS011;13010;-33.424;-70.614;2023-02-13T12:48:59;4.50;;;1.77;;
7348;SDS011;13010;-33.424;-70.614;2023-02-13T12:51:55;7.13;;;2.13;;
7348;SDS011;13010;-33.424;-70.614;2023-02-13T12:54:59;6.27;;;2.20;;
7348;SDS011;13010;-33.424;-70.614;2023-02-13T12:58:06;3.50;;;1.70;;
7348;SDS011;13010;-33.424;-70.614;2023-02-13T13:01:08;20.50;;;2.40;;
7348;SDS011;13010;-33.424;-70.614;2023-02-13T13:04:08;5.10;;;1.80;;
7348;SDS011;13010;-33.424;-70.614;2023-02-13T13:07:18;7.73;;;2.97;;
7348;SDS011;13010;-33.424;-70.614;2023-02-13T13:10:27;5.03;;;2.07;;
7348;SDS011;13010;-33.424;-70.614;2023-02-13T13:13:36;3.23;;;1.50;;
7348;SDS011;13010;-33.424;-70.614;2023-02-13T13:16:41;8.90;;;2.00;;
7348;SDS011;13010;-33.424;-70.614;2023-02-13T13:19:39;10.23;;;2.20;;
7348;SDS011;13010;-33.424;-70.614;2023-02-13T13:22:36;5.63;;;1.93;;
7348;SDS011;13010;-33.424;-70.614;2023-02-13T13:25:30;4.37;;;2.00;;
7348;SDS011;13010;-33.424;-70.614;2023-02-13T13:28:28;3.27;;;1.57;;
7348;SDS011;13010;-33.424;-70.614;2023-02-13T13:31:21;7.00;;;2.00;;
7348;SDS011;13010;-33.424;-70.614;2023-02-13T13:34:15;3.13;;;1.23;;
7348;SDS011;13010;-33.424;-70.614;2023-02-13T13:37:08;4.87;;;1.60;;
7348;SDS011;13010;-33.424;-70.614;2023-02-13T13:40:08;5.90;;;2.23;;
7348;SDS011;13010;-33.424;-70.614;2023-02-13T13:43:15;8.80;;;2.13;;
7348;SDS011;13010;-33.424;-70.614;2023-02-13T13:46:09;3.30;;;1.60;;
7348;SDS011;13010;-33.424;-70.614;2023-02-13T13:49:11;7.27;;;2.57;;
7348;SDS011;13010;-33.424;-70.614;2023-02-13T13:52:22;9.40;;;2.40;;
7348;SDS011;13010;-33.424;-70.614;2023-02-13T13:55:57;4.20;;;2.10;;
7348;SDS011;13010;-33.424;-70.614;2023-02-13T13:59:01;3.27;;;1.80;;
7348;SDS011;13010;-33.424;-70.614;2023-02-13T14:01:56;4.50;;;2.10;;
7348;SDS011;13010;-33.424;-70.614;2023-02-13T14:05:27;4.50;;;1.70;;
7348;SDS011;13010;-33.424;-70.614;2023-02-13T14:11:54;10.50;;;2.40;;
7348;SDS011;13010;-33.424;-70.614;2023-02-13T14:14:46;3.60;;;1.33;;
7348;SDS011;13010;-33.424;-70.614;2023-02-13T14:17:49;10.57;;;2.03;;
7348;SDS011;13010;-33.424;-70.614;2023-02-13T14:20:42;4.10;;;1.20;;
7348;SDS011;13010;-33.424;-70.614;2023-02-13T14:23:46;11.80;;;1.90;;
7348;SDS011;13010;-33.424;-70.614;2023-02-13T14:26:37;3.33;;;1.50;;
7348;SDS011;13010;-33.424;-70.614;2023-02-13T14:29:30;2.90;;;1.47;;
7348;SDS011;13010;-33.424;-70.614;2023-02-13T14:32:21;3.43;;;1.30;;
7348;SDS011;13010;-33.424;-70.614;2023-02-13T14:35:15;5.70;;;2.03;;
7348;SDS011;13010;-33.424;-70.614;2023-02-13T14:38:20;4.80;;;2.80;;
7348;SDS011;13010;-33.424;-70.614;2023-02-13T14:44:30;8.23;;;1.27;;
7348;SDS011;13010;-33.424;-70.614;2023-02-13T14:47:23;14.00;;;2.20;;
7348;SDS011;13010;-33.424;-70.614;2023-02-13T14:50:17;9.00;;;2.33;;
7348;SDS011;13010;-33.424;-70.614;2023-02-13T14:53:14;7.00;;;1.67;;
7348;SDS011;13010;-33.424;-70.614;2023-02-13T14:56:11;16.63;;;4.90;;
7348;SDS011;13010;-33.424;-70.614;2023-02-13T14:59:05;6.47;;;2.70;;
7348;SDS011;13010;-33.424;-70.614;2023-02-13T15:02:01;4.10;;;1.27;;
7348;SDS011;13010;-33.424;-70.614;2023-02-13T15:05:01;2.87;;;1.10;;
7348;SDS011;13010;-33.424;-70.614;2023-02-13T15:08:01;2.73;;;1.20;;
7348;SDS011;13010;-33.424;-70.614;2023-02-13T15:10:56;2.53;;;1.40;;
7348;SDS011;13010;-33.424;-70.614;2023-02-13T15:13:46;4.40;;;1.40;;
7348;SDS011;13010;-33.424;-70.614;2023-02-13T15:16:35;3.63;;;1.60;;
7348;SDS011;13010;-33.424;-70.614;2023-02-13T15:19:23;5.60;;;1.97;;
7348;SDS011;13010;-33.424;-70.614;2023-02-13T15:22:16;4.20;;;1.10;;
7348;SDS011;13010;-33.424;-70.614;2023-02-13T15:25:07;5.47;;;1.43;;
7348;SDS011;13010;-33.424;-70.614;2023-02-13T15:28:14;5.77;;;1.40;;
7348;SDS011;13010;-33.424;-70.614;2023-02-13T15:31:16;4.50;;;1.40;;
7348;SDS011;13010;-33.424;-70.614;2023-02-13T15:34:18;2.63;;;1.27;;
7348;SDS011;13010;-33.424;-70.614;2023-02-13T15:37:18;15.40;;;3.10;;
7348;SDS011;13010;-33.424;-70.614;2023-02-13T15:40:18;6.97;;;1.00;;
7348;SDS011;13010;-33.424;-70.614;2023-02-13T15:43:16;2.10;;;0.77;;
7348;SDS011;13010;-33.424;-70.614;2023-02-13T15:46:17;3.20;;;1.20;;
7348;SDS011;13010;-33.424;-70.614;2023-02-13T15:49:10;5.43;;;1.10;;
7348;SDS011;13010;-33.424;-70.614;2023-02-13T15:52:06;5.13;;;1.07;;
7348;SDS011;13010;-33.424;-70.614;2023-02-13T15:55:04;3.63;;;1.50;;
7348;SDS011;13010;-33.424;-70.614;2023-02-13T15:58:04;10.07;;;1.97;;
7348;SDS011;13010;-33.424;-70.614;2023-02-13T16:01:02;3.67;;;1.30;;
7348;SDS011;13010;-33.424;-70.614;2023-02-13T16:03:55;4.23;;;1.30;;
7348;SDS011;13010;-33.424;-70.614;2023-02-13T16:06:49;2.73;;;1.30;;
7348;SDS011;13010;-33.424;-70.614;2023-02-13T16:09:41;2.07;;;0.80;;
7348;SDS011;13010;-33.424;-70.614;2023-02-13T16:12:30;2.20;;;0.80;;
7348;SDS011;13010;-33.424;-70.614;2023-02-13T16:15:20;2.97;;;1.10;;
7348;SDS011;13010;-33.424;-70.614;2023-02-13T16:18:18;2.43;;;1.00;;
7348;SDS011;13010;-33.424;-70.614;2023-02-13T16:21:08;2.43;;;1.10;;
7348;SDS011;13010;-33.424;-70.614;2023-02-13T16:23:57;3.03;;;1.00;;
7348;SDS011;13010;-33.424;-70.614;2023-02-13T16:26:49;3.13;;;1.00;;
7348;SDS011;13010;-33.424;-70.614;2023-02-13T16:29:38;3.13;;;0.93;;
7348;SDS011;13010;-33.424;-70.614;2023-02-13T16:32:36;2.93;;;1.00;;
7348;SDS011;13010;-33.424;-70.614;2023-02-13T16:35:29;4.03;;;1.13;;
7348;SDS011;13010;-33.424;-70.614;2023-02-13T16:38:25;2.50;;;1.20;;
7348;SDS011;13010;-33.424;-70.614;2023-02-13T16:41:29;3.43;;;1.17;;
7348;SDS011;13010;-33.424;-70.614;2023-02-13T16:44:26;2.10;;;0.80;;
7348;SDS011;13010;-33.424;-70.614;2023-02-13T16:47:19;1.87;;;0.60;;
7348;SDS011;13010;-33.424;-70.614;2023-02-13T16:50:12;2.60;;;1.23;;
7348;SDS011;13010;-33.424;-70.614;2023-02-13T16:53:04;2.10;;;0.90;;
7348;SDS011;13010;-33.424;-70.614;2023-02-13T16:55:56;1.90;;;0.70;;
7348;SDS011;13010;-33.424;-70.614;2023-02-13T16:58:47;5.47;;;0.80;;
7348;SDS011;13010;-33.424;-70.614;2023-02-13T17:01:36;12.93;;;1.83;;
7348;SDS011;13010;-33.424;-70.614;2023-02-13T17:04:26;2.67;;;0.70;;
7348;SDS011;13010;-33.424;-70.614;2023-02-13T17:07:17;2.50;;;0.87;;
7348;SDS011;13010;-33.424;-70.614;2023-02-13T17:10:16;2.67;;;0.93;;
7348;SDS011;13010;-33.424;-70.614;2023-02-13T17:13:11;1.90;;;0.63;;
7348;SDS011;13010;-33.424;-70.614;2023-02-13T17:16:03;3.60;;;1.17;;
7348;SDS011;13010;-33.424;-70.614;2023-02-13T17:18:56;1.90;;;0.63;;
7348;SDS011;13010;-33.424;-70.614;2023-02-13T17:21:45;4.83;;;1.60;;
7348;SDS011;13010;-33.424;-70.614;2023-02-13T17:24:37;5.07;;;1.60;;
7348;SDS011;13010;-33.424;-70.614;2023-02-13T17:27:28;4.60;;;1.47;;
7348;SDS011;13010;-33.424;-70.614;2023-02-13T17:30:21;7.93;;;1.97;;
7348;SDS011;13010;-33.424;-70.614;2023-02-13T17:33:11;2.10;;;0.80;;
7348;SDS011;13010;-33.424;-70.614;2023-02-13T17:36:03;4.30;;;1.13;;
7348;SDS011;13010;-33.424;-70.614;2023-02-13T17:38:53;10.00;;;2.20;;
7348;SDS011;13010;-33.424;-70.614;2023-02-13T17:41:43;4.90;;;1.57;;
7348;SDS011;13010;-33.424;-70.614;2023-02-13T17:44:34;8.97;;;1.23;;
7348;SDS011;13010;-33.424;-70.614;2023-02-13T17:47:23;6.80;;;2.80;;
7348;SDS011;13010;-33.424;-70.614;2023-02-13T17:50:14;6.77;;;1.70;;
7348;SDS011;13010;-33.424;-70.614;2023-02-13T17:53:03;4.03;;;1.07;;
7348;SDS011;13010;-33.424;-70.614;2023-02-13T17:55:53;4.20;;;0.93;;
7348;SDS011;13010;-33.424;-70.614;2023-02-13T17:58:42;2.20;;;0.80;;
7348;SDS011;13010;-33.424;-70.614;2023-02-13T18:01:33;4.90;;;1.53;;
7348;SDS011;13010;-33.424;-70.614;2023-02-13T18:04:22;9.30;;;2.77;;
7348;SDS011;13010;-33.424;-70.614;2023-02-13T18:07:11;6.63;;;1.50;;
7348;SDS011;13010;-33.424;-70.614;2023-02-13T18:10:02;11.00;;;3.50;;
7348;SDS011;13010;-33.424;-70.614;2023-02-13T18:12:52;3.73;;;1.33;;
7348;SDS011;13010;-33.424;-70.614;2023-02-13T18:15:49;3.20;;;1.43;;
7348;SDS011;13010;-33.424;-70.614;2023-02-13T18:18:41;3.50;;;1.70;;
7348;SDS011;13010;-33.424;-70.614;2023-02-13T18:21:30;3.40;;;1.30;;
7348;SDS011;13010;-33.424;-70.614;2023-02-13T18:24:19;3.17;;;1.60;;
7348;SDS011;13010;-33.424;-70.614;2023-02-13T18:27:08;4.93;;;1.20;;
7348;SDS011;13010;-33.424;-70.614;2023-02-13T18:29:58;3.47;;;1.23;;
7348;SDS011;13010;-33.424;-70.614;2023-02-13T18:32:49;8.03;;;1.10;;
7348;SDS011;13010;-33.424;-70.614;2023-02-13T18:35:41;4.20;;;1.60;;
7348;SDS011;13010;-33.424;-70.614;2023-02-13T18:38:30;3.00;;;1.00;;
7348;SDS011;13010;-33.424;-70.614;2023-02-13T18:41:19;2.67;;;1.30;;
7348;SDS011;13010;-33.424;-70.614;2023-02-13T18:44:09;4.73;;;2.37;;
7348;SDS011;13010;-33.424;-70.614;2023-02-13T18:46:58;8.87;;;1.87;;
7348;SDS011;13010;-33.424;-70.614;2023-02-13T18:49:47;5.00;;;1.47;;
7348;SDS011;13010;-33.424;-70.614;2023-02-13T18:52:38;8.93;;;2.23;;
7348;SDS011;13010;-33.424;-70.614;2023-02-13T18:55:27;3.07;;;1.53;;
7348;SDS011;13010;-33.424;-70.614;2023-02-13T18:58:16;4.70;;;1.60;;
7348;SDS011;13010;-33.424;-70.614;2023-02-13T19:01:06;2.80;;;1.20;;
7348;SDS011;13010;-33.424;-70.614;2023-02-13T19:03:56;3.10;;;1.40;;
7348;SDS011;13010;-33.424;-70.614;2023-02-13T19:06:45;4.40;;;1.70;;
7348;SDS011;13010;-33.424;-70.614;2023-02-13T19:09:38;3.10;;;1.47;;
7348;SDS011;13010;-33.424;-70.614;2023-02-13T19:12:28;3.20;;;1.30;;
7348;SDS011;13010;-33.424;-70.614;2023-02-13T19:15:17;7.63;;;1.50;;
7348;SDS011;13010;-33.424;-70.614;2023-02-13T19:18:07;9.10;;;2.27;;
7348;SDS011;13010;-33.424;-70.614;2023-02-13T19:20:58;3.97;;;1.73;;
7348;SDS011;13010;-33.424;-70.614;2023-02-13T19:23:48;4.30;;;1.93;;
7348;SDS011;13010;-33.424;-70.614;2023-02-13T19:26:40;5.93;;;2.70;;
7348;SDS011;13010;-33.424;-70.614;2023-02-13T19:29:30;7.10;;;2.10;;
7348;SDS011;13010;-33.424;-70.614;2023-02-13T19:32:19;3.57;;;1.93;;
7348;SDS011;13010;-33.424;-70.614;2023-02-13T19:35:09;10.33;;;2.90;;
7348;SDS011;13010;-33.424;-70.614;2023-02-13T19:37:58;9.43;;;3.50;;
7348;SDS011;13010;-33.424;-70.614;2023-02-13T19:40:47;6.50;;;2.80;;
7348;SDS011;13010;-33.424;-70.614;2023-02-13T19:43:40;6.63;;;3.23;;
7348;SDS011;13010;-33.424;-70.614;2023-02-13T19:46:33;3.97;;;2.30;;
7348;SDS011;13010;-33.424;-70.614;2023-02-13T19:49:23;8.70;;;6.10;;